createdAt,value
2022-11-30T00:01:14.257Z,75.38
2022-11-30T00:03:40.774Z,82.75
2022-11-30T00:06:09.495Z,87.55
2022-11-30T00:08:36.347Z,80.32
2022-11-30T00:11:09.763Z,84.25
2022-11-30T00:13:36.378Z,90.05
2022-11-30T00:16:03.243Z,80.07
2022-11-30T00:18:29.703Z,82.25
2022-11-30T00:20:59.722Z,74.85
2022-11-30T00:23:26.140Z,83.43
2022-11-30T00:25:52.524Z,73.60
2022-11-30T00:28:18.906Z,65.78
2022-11-30T00:30:45.368Z,64.25
2022-11-30T00:33:11.886Z,70.20
2022-11-30T00:35:38.246Z,63.83
2022-11-30T00:38:04.661Z,63.60
2022-11-30T00:40:31.085Z,66.10
2022-11-30T00:42:57.564Z,59.40
2022-11-30T00:45:23.961Z,58.25
2022-11-30T00:47:50.368Z,59.22
2022-11-30T00:50:16.786Z,62.25
2022-11-30T00:52:43.196Z,60.35
2022-11-30T00:55:09.682Z,58.17
2022-11-30T00:57:36.067Z,56.60
2022-11-30T01:00:02.576Z,59.53
2022-11-30T01:02:29.008Z,63.00
2022-11-30T01:04:55.415Z,65.07
2022-11-30T01:07:21.801Z,59.78
2022-11-30T01:09:48.266Z,61.45
2022-11-30T01:12:14.608Z,60.65
2022-11-30T01:14:41.028Z,65.63
2022-11-30T01:17:07.423Z,61.92
2022-11-30T01:19:33.789Z,56.05
2022-11-30T01:22:00.211Z,53.70
2022-11-30T01:24:26.607Z,61.28
2022-11-30T01:26:53.046Z,59.63
2022-11-30T01:29:19.410Z,56.35
2022-11-30T01:31:45.816Z,55.33
2022-11-30T01:34:12.165Z,56.67
2022-11-30T01:36:38.989Z,61.53
2022-11-30T01:39:09.133Z,55.45
2022-11-30T01:41:36.855Z,63.22
2022-11-30T01:44:06.173Z,60.95
2022-11-30T01:46:43.993Z,64.40
2022-11-30T01:49:10.370Z,63.97
2022-11-30T01:51:43.336Z,64.57
2022-11-30T01:54:13.020Z,75.10
2022-11-30T01:56:48.501Z,71.43
2022-11-30T01:59:15.924Z,66.07
2022-11-30T02:01:42.437Z,77.15
2022-11-30T02:04:15.313Z,71.95
2022-11-30T02:06:42.245Z,75.75
2022-11-30T02:09:08.696Z,76.03
2022-11-30T02:11:35.295Z,79.22
2022-11-30T02:14:12.579Z,81.63
2022-11-30T02:17:08.121Z,77.30
2022-11-30T02:20:07.580Z,108.00
2022-11-30T02:22:51.997Z,80.00
2022-11-30T02:25:47.010Z,83.10
2022-11-30T02:28:41.477Z,103.33
2022-11-30T02:31:13.873Z,115.15
2022-11-30T02:33:41.916Z,87.72
2022-11-30T02:36:09.785Z,121.50
2022-11-30T02:38:37.626Z,114.93
2022-11-30T02:41:04.286Z,101.82
2022-11-30T02:43:32.009Z,127.18
2022-11-30T02:46:10.456Z,104.93
2022-11-30T02:48:53.278Z,100.05
2022-11-30T02:51:24.500Z,112.10
2022-11-30T02:53:51.272Z,108.18
2022-11-30T02:56:19.489Z,100.03
2022-11-30T02:58:46.252Z,120.22
2022-11-30T03:01:12.724Z,100.55
2022-11-30T03:03:39.181Z,106.95
2022-11-30T03:06:05.841Z,96.82
2022-11-30T03:08:32.202Z,88.93
2022-11-30T03:11:03.063Z,83.63
2022-11-30T03:13:31.335Z,89.40
2022-11-30T03:15:57.778Z,83.88
2022-11-30T03:18:24.376Z,82.53
2022-11-30T03:20:50.941Z,78.35
2022-11-30T03:23:18.539Z,75.38
2022-11-30T03:25:44.945Z,68.88
2022-11-30T03:28:11.363Z,69.45
2022-11-30T03:30:37.776Z,69.45
2022-11-30T03:33:04.305Z,75.55
2022-11-30T03:35:30.677Z,80.50
2022-11-30T03:37:57.559Z,78.22
2022-11-30T03:40:23.901Z,80.25
2022-11-30T03:42:50.325Z,79.40
2022-11-30T03:45:16.759Z,77.40
2022-11-30T03:47:43.555Z,74.28
2022-11-30T03:50:11.182Z,77.38
2022-11-30T03:52:37.749Z,72.25
2022-11-30T03:55:04.441Z,74.10
2022-11-30T03:57:30.803Z,66.18
2022-11-30T03:59:57.242Z,66.22
2022-11-30T04:02:23.799Z,66.93
2022-11-30T04:04:50.294Z,75.78
2022-11-30T04:07:16.859Z,77.05
2022-11-30T04:09:43.385Z,87.63
2022-11-30T04:12:09.819Z,88.65
2022-11-30T04:14:36.212Z,82.78
2022-11-30T04:17:02.649Z,81.68
2022-11-30T04:19:29.058Z,75.43
2022-11-30T04:21:55.502Z,79.60
2022-11-30T04:24:21.973Z,74.68
2022-11-30T04:26:48.365Z,74.78
2022-11-30T04:29:14.801Z,68.25
2022-11-30T04:31:41.271Z,73.15
2022-11-30T04:34:07.731Z,76.78
2022-11-30T04:36:34.110Z,82.15
2022-11-30T04:39:00.458Z,85.68
2022-11-30T04:41:26.878Z,89.07
2022-11-30T04:43:53.334Z,92.00
2022-11-30T04:46:19.739Z,82.40
2022-11-30T04:48:46.108Z,68.35
2022-11-30T04:51:12.607Z,57.28
2022-11-30T04:53:39.140Z,59.92
2022-11-30T04:56:10.401Z,56.13
2022-11-30T04:58:38.573Z,52.67
2022-11-30T05:01:05.093Z,54.67
2022-11-30T05:03:31.554Z,52.60
2022-11-30T05:05:57.989Z,50.17
2022-11-30T05:08:24.456Z,54.60
2022-11-30T05:10:54.754Z,50.75
2022-11-30T05:13:23.138Z,51.58
2022-11-30T05:15:49.963Z,48.75
2022-11-30T05:18:16.714Z,50.92
2022-11-30T05:20:48.135Z,53.63
2022-11-30T05:23:14.743Z,48.83
2022-11-30T05:25:41.186Z,47.20
2022-11-30T05:28:07.597Z,48.88
2022-11-30T05:30:34.022Z,47.55
2022-11-30T05:33:00.475Z,49.42
2022-11-30T05:35:26.896Z,48.13
2022-11-30T05:37:53.305Z,48.70
2022-11-30T05:40:19.817Z,46.42
2022-11-30T05:42:46.179Z,49.47
2022-11-30T05:45:12.673Z,44.17
2022-11-30T05:47:39.121Z,43.33
2022-11-30T05:50:06.381Z,44.75
2022-11-30T05:52:32.760Z,42.78
2022-11-30T05:54:59.462Z,44.55
2022-11-30T05:57:25.834Z,43.38
2022-11-30T05:59:52.236Z,43.63
2022-11-30T06:02:21.449Z,42.38
2022-11-30T06:04:51.627Z,41.22
2022-11-30T06:07:18.002Z,40.85
2022-11-30T06:09:44.376Z,42.97
2022-11-30T06:12:10.808Z,41.72
2022-11-30T06:14:37.174Z,41.47
2022-11-30T06:17:03.705Z,39.00
2022-11-30T06:19:30.156Z,37.63
2022-11-30T06:21:56.579Z,42.45
2022-11-30T06:24:23.012Z,43.88
2022-11-30T06:26:49.410Z,38.53
2022-11-30T06:29:15.766Z,47.10
2022-11-30T06:31:42.279Z,40.70
2022-11-30T06:34:08.862Z,46.80
2022-11-30T06:36:36.410Z,44.28
2022-11-30T06:39:03.717Z,40.42
2022-11-30T06:41:30.207Z,43.15
2022-11-30T06:43:56.746Z,45.03
2022-11-30T06:46:23.888Z,43.47
2022-11-30T06:48:50.900Z,45.42
2022-11-30T06:51:17.890Z,39.13
2022-11-30T06:53:45.444Z,42.40
2022-11-30T06:56:12.730Z,44.42
2022-11-30T06:58:40.244Z,40.80
2022-11-30T07:01:09.699Z,37.55
2022-11-30T07:03:37.076Z,41.50
2022-11-30T07:06:11.562Z,42.55
2022-11-30T07:08:39.185Z,41.88
2022-11-30T07:11:06.431Z,43.53
2022-11-30T07:13:33.355Z,42.72
2022-11-30T07:16:02.536Z,39.78
2022-11-30T07:18:32.097Z,40.72
2022-11-30T07:21:00.831Z,44.28
2022-11-30T07:23:48.450Z,41.55
2022-11-30T07:26:18.914Z,39.83
2022-11-30T07:28:51.242Z,39.92
2022-11-30T07:31:19.971Z,38.60
2022-11-30T07:33:47.650Z,43.47
2022-11-30T07:36:15.440Z,41.88
2022-11-30T07:38:41.888Z,42.85
2022-11-30T07:41:08.666Z,39.72
2022-11-30T07:43:35.229Z,39.42
2022-11-30T07:46:02.796Z,38.25
2022-11-30T07:48:29.235Z,37.08
2022-11-30T07:51:02.490Z,38.10
2022-11-30T07:53:28.962Z,39.90
2022-11-30T07:56:01.596Z,39.90
2022-11-30T07:58:29.681Z,39.63
2022-11-30T08:01:02.772Z,35.40
2022-11-30T08:03:32.377Z,39.92
2022-11-30T08:06:08.841Z,38.92
2022-11-30T08:08:40.959Z,41.75
2022-11-30T08:11:09.350Z,39.25
2022-11-30T08:13:35.909Z,36.83
2022-11-30T08:16:08.374Z,42.33
2022-11-30T08:18:35.318Z,38.22
2022-11-30T08:21:05.562Z,42.78
2022-11-30T08:23:38.064Z,40.85
2022-11-30T08:26:07.186Z,38.28
2022-11-30T08:28:37.509Z,37.53
2022-11-30T08:31:07.418Z,43.85
2022-11-30T08:33:35.563Z,37.40
2022-11-30T08:36:20.117Z,37.75
2022-11-30T08:38:47.623Z,39.40
2022-11-30T08:41:16.606Z,40.63
2022-11-30T08:43:43.312Z,39.05
2022-11-30T08:46:42.636Z,38.55
2022-11-30T08:49:19.808Z,36.97
2022-11-30T08:54:33.789Z,39.08
2022-11-30T08:57:00.183Z,44.80
2022-11-30T08:59:26.654Z,47.35
2022-11-30T09:01:53.213Z,52.83
2022-11-30T09:04:19.592Z,49.40
2022-11-30T09:06:46.059Z,51.70
2022-11-30T09:09:12.402Z,55.35
2022-11-30T09:11:38.926Z,52.60
2022-11-30T09:14:05.483Z,51.13
2022-11-30T09:16:32.050Z,52.38
2022-11-30T09:18:58.573Z,52.35
2022-11-30T09:21:25.737Z,53.55
2022-11-30T09:23:52.786Z,49.17
2022-11-30T09:26:21.675Z,50.92
2022-11-30T09:28:48.582Z,55.95
2022-11-30T09:31:21.244Z,58.05
2022-11-30T09:33:48.500Z,59.05
2022-11-30T09:36:17.289Z,64.32
2022-11-30T09:38:43.978Z,60.53
2022-11-30T09:41:13.211Z,68.43
2022-11-30T09:43:52.620Z,62.17
2022-11-30T09:46:25.922Z,62.70
2022-11-30T09:49:18.758Z,66.70
2022-11-30T09:51:49.567Z,63.72
2022-11-30T09:54:20.991Z,66.50
2022-11-30T09:56:47.540Z,65.53
2022-11-30T09:59:19.579Z,68.45
2022-11-30T10:01:51.991Z,66.28
2022-11-30T10:04:29.921Z,66.68
2022-11-30T10:07:09.888Z,62.85
2022-11-30T10:12:52.668Z,75.90
2022-11-30T10:15:22.049Z,74.60
2022-11-30T10:18:30.173Z,76.45
2022-11-30T10:21:16.001Z,75.68
2022-11-30T10:23:58.497Z,73.03
2022-11-30T10:26:34.426Z,69.88
2022-11-30T10:29:20.375Z,74.13
2022-11-30T10:31:49.567Z,72.97
2022-11-30T10:34:21.791Z,74.50
2022-11-30T10:36:54.924Z,72.95
2022-11-30T10:39:31.566Z,64.65
2022-11-30T10:42:09.764Z,65.20
2022-11-30T10:44:40.383Z,62.97
2022-11-30T10:47:26.385Z,62.45
2022-11-30T10:49:53.043Z,59.70
2022-11-30T10:52:32.291Z,60.47
2022-11-30T10:55:04.605Z,57.55
2022-11-30T10:57:33.155Z,56.13
2022-11-30T11:00:02.364Z,57.47
2022-11-30T11:02:34.747Z,56.65
2022-11-30T11:05:28.858Z,54.15
2022-11-30T11:08:05.913Z,51.78
2022-11-30T11:10:42.672Z,51.20
2022-11-30T11:13:42.529Z,55.17
2022-11-30T11:16:13.487Z,54.13
2022-11-30T11:18:55.095Z,53.15
2022-11-30T11:21:23.289Z,54.30
2022-11-30T11:23:52.919Z,47.42
2022-11-30T11:26:29.844Z,53.10
2022-11-30T11:28:59.549Z,51.40
2022-11-30T11:31:47.287Z,50.55
2022-11-30T11:34:26.461Z,54.03
2022-11-30T11:37:15.503Z,55.10
2022-11-30T11:39:41.950Z,51.42
2022-11-30T11:42:21.984Z,50.03
2022-11-30T11:44:59.621Z,49.53
2022-11-30T11:47:29.607Z,54.03
2022-11-30T11:50:20.848Z,50.25
2022-11-30T11:53:11.725Z,49.92
2022-11-30T11:55:39.526Z,52.15
2022-11-30T11:58:06.295Z,57.60
2022-11-30T12:00:33.205Z,53.03
2022-11-30T12:03:05.726Z,52.22
2022-11-30T12:05:43.952Z,48.15
2022-11-30T12:08:34.913Z,51.72
2022-11-30T12:11:23.268Z,46.17
2022-11-30T12:13:50.334Z,51.70
2022-11-30T12:16:32.905Z,49.60
2022-11-30T12:19:36.894Z,57.95
2022-11-30T12:22:27.816Z,48.40
2022-11-30T12:25:21.722Z,49.78
2022-11-30T12:27:54.483Z,53.40
2022-11-30T12:30:32.476Z,50.25
2022-11-30T12:33:13.206Z,50.17
2022-11-30T12:36:21.597Z,50.83
2022-11-30T12:38:55.879Z,50.05
2022-11-30T12:41:34.481Z,49.53
2022-11-30T12:44:12.724Z,53.50
2022-11-30T12:47:17.625Z,52.88
2022-11-30T12:50:19.202Z,50.80
2022-11-30T12:53:01.462Z,45.20
2022-11-30T12:55:48.115Z,46.65
2022-11-30T12:58:25.626Z,50.47
2022-11-30T13:01:01.164Z,51.22
2022-11-30T13:03:49.459Z,47.25
2022-11-30T13:06:24.507Z,50.20
2022-11-30T13:09:03.529Z,53.05
2022-11-30T13:11:56.316Z,50.45
2022-11-30T13:14:25.585Z,56.83
2022-11-30T13:17:01.478Z,51.78
2022-11-30T13:20:14.357Z,50.28
2022-11-30T13:22:50.660Z,50.78
2022-11-30T13:26:09.939Z,49.20
2022-11-30T13:28:42.233Z,47.88
2022-11-30T13:31:33.977Z,48.92
2022-11-30T13:34:00.798Z,49.08
2022-11-30T13:36:33.015Z,52.60
2022-11-30T13:39:14.278Z,54.17
2022-11-30T13:41:43.909Z,49.05
2022-11-30T13:44:22.392Z,48.53
2022-11-30T13:46:53.407Z,47.08
2022-11-30T13:49:38.028Z,46.85
2022-11-30T13:52:23.223Z,47.83
2022-11-30T13:54:54.523Z,47.90
2022-11-30T13:57:30.190Z,48.35
2022-11-30T13:59:58.082Z,45.15
2022-11-30T14:02:33.738Z,47.80
2022-11-30T14:05:18.581Z,48.00
2022-11-30T14:08:10.010Z,49.30
2022-11-30T14:10:37.824Z,47.33
2022-11-30T14:13:10.599Z,46.70
2022-11-30T14:15:40.725Z,48.38
2022-11-30T14:18:10.201Z,52.40
2022-11-30T14:20:43.828Z,51.47
2022-11-30T14:23:29.596Z,60.25
2022-11-30T14:26:00.524Z,49.13
2022-11-30T14:28:58.969Z,50.45
2022-11-30T14:31:31.652Z,54.92
2022-11-30T14:34:06.329Z,52.47
2022-11-30T14:36:36.022Z,45.63
2022-11-30T14:39:02.554Z,49.42
2022-11-30T14:41:30.947Z,49.55
2022-11-30T14:44:02.904Z,52.05
2022-11-30T14:46:30.551Z,49.97
2022-11-30T14:49:07.042Z,50.70
2022-11-30T14:51:33.722Z,48.28
2022-11-30T14:54:15.234Z,49.92
2022-11-30T14:56:52.189Z,48.35
2022-11-30T14:59:45.862Z,47.42
2022-11-30T15:02:33.625Z,48.65
2022-11-30T15:05:00.685Z,46.92
2022-11-30T15:07:29.791Z,46.65
2022-11-30T15:10:12.298Z,49.00
2022-11-30T15:12:40.667Z,47.58
2022-11-30T15:15:27.848Z,50.72
2022-11-30T15:18:18.499Z,48.28
2022-11-30T15:20:49.935Z,47.97
2022-11-30T15:23:17.151Z,49.65
2022-11-30T15:25:47.575Z,44.63
2022-11-30T15:28:24.387Z,48.45
2022-11-30T15:30:56.867Z,47.88
2022-11-30T15:33:26.879Z,44.08
2022-11-30T15:36:16.301Z,44.58
2022-11-30T15:38:47.097Z,44.92
2022-11-30T15:41:21.404Z,42.15
2022-11-30T15:43:56.275Z,41.25
2022-11-30T15:46:46.081Z,39.55
2022-11-30T15:49:12.915Z,40.35
2022-11-30T15:51:45.172Z,38.40
2022-11-30T15:54:11.868Z,39.08
2022-11-30T15:56:38.441Z,38.45
2022-11-30T15:59:08.092Z,40.58
2022-11-30T16:02:04.654Z,37.75
2022-11-30T16:05:13.790Z,37.90
2022-11-30T16:07:53.807Z,34.85
2022-11-30T16:10:27.604Z,38.70
2022-11-30T16:12:54.978Z,37.67
2022-11-30T16:15:28.347Z,38.42
2022-11-30T16:18:21.300Z,36.08
2022-11-30T16:20:54.059Z,37.60
2022-11-30T16:23:20.927Z,35.10
2022-11-30T16:25:49.033Z,36.42
2022-11-30T16:28:17.342Z,36.15
2022-11-30T16:30:45.136Z,37.85
2022-11-30T16:33:24.470Z,34.10
2022-11-30T16:35:53.816Z,38.42
2022-11-30T16:38:20.638Z,35.25
2022-11-30T16:40:47.112Z,34.35
2022-11-30T16:43:14.332Z,38.25
2022-11-30T16:45:42.146Z,39.13
2022-11-30T16:48:08.602Z,41.38
2022-11-30T16:50:36.307Z,39.47
2022-11-30T16:53:04.637Z,40.20
2022-11-30T16:55:37.733Z,38.45
2022-11-30T16:58:04.758Z,38.88
2022-11-30T17:00:32.025Z,43.13
2022-11-30T17:03:22.495Z,42.70
2022-11-30T17:05:49.274Z,46.13
2022-11-30T17:08:15.874Z,40.92
2022-11-30T17:10:42.788Z,45.17
2022-11-30T17:13:13.879Z,41.00
2022-11-30T17:15:40.564Z,46.35
2022-11-30T17:18:07.085Z,46.05
2022-11-30T17:20:35.806Z,43.22
2022-11-30T17:23:02.626Z,44.78
2022-11-30T17:25:29.119Z,49.78
2022-11-30T17:27:55.557Z,51.22
2022-11-30T17:30:23.746Z,43.58
2022-11-30T17:32:50.787Z,44.00
2022-11-30T17:35:18.634Z,44.88
2022-11-30T17:37:45.546Z,46.63
2022-11-30T17:40:13.144Z,47.03
2022-11-30T17:42:40.552Z,46.90
2022-11-30T17:45:07.560Z,45.20
2022-11-30T17:47:33.972Z,49.00
2022-11-30T17:50:00.423Z,47.15
2022-11-30T17:52:26.895Z,54.20
2022-11-30T17:54:53.276Z,50.28
2022-11-30T17:57:19.700Z,52.15
2022-11-30T17:59:46.113Z,51.85
2022-11-30T18:02:12.620Z,53.10
2022-11-30T18:04:39.686Z,51.67
2022-11-30T18:07:06.268Z,58.28
2022-11-30T18:09:37.805Z,60.72
2022-11-30T18:12:07.512Z,54.72
2022-11-30T18:14:34.021Z,61.47
2022-11-30T18:17:00.470Z,64.55
2022-11-30T18:19:27.065Z,59.85
2022-11-30T18:21:55.281Z,63.30
2022-11-30T18:24:25.227Z,61.65
2022-11-30T18:26:52.535Z,61.60
2022-11-30T18:29:19.115Z,66.20
2022-11-30T18:31:48.114Z,64.05
2022-11-30T18:34:14.851Z,61.78
2022-11-30T18:36:41.234Z,59.72
2022-11-30T18:39:07.653Z,60.22
2022-11-30T18:41:34.053Z,60.92
2022-11-30T18:44:00.453Z,62.75
2022-11-30T18:46:27.473Z,52.20
2022-11-30T18:48:54.610Z,54.42
2022-11-30T18:51:24.070Z,51.15
2022-11-30T18:53:57.707Z,48.30
2022-11-30T18:56:26.016Z,45.58
2022-11-30T18:59:13.276Z,48.25
2022-11-30T19:01:40.497Z,46.20
2022-11-30T19:04:09.529Z,43.28
2022-11-30T19:06:37.770Z,42.30
2022-11-30T19:09:08.494Z,41.97
2022-11-30T19:11:35.606Z,40.85
2022-11-30T19:14:03.282Z,42.90
2022-11-30T19:16:30.879Z,45.95
2022-11-30T19:19:06.617Z,43.80
2022-11-30T19:21:33.786Z,47.95
2022-11-30T19:24:00.370Z,41.28
2022-11-30T19:26:28.410Z,46.00
2022-11-30T19:28:56.249Z,46.53
2022-11-30T19:31:24.089Z,38.40
2022-11-30T19:33:53.028Z,38.28
2022-11-30T19:36:24.699Z,42.38
2022-11-30T19:38:51.514Z,37.33
2022-11-30T19:41:19.979Z,33.90
2022-11-30T19:43:53.163Z,34.25
2022-11-30T19:46:21.436Z,33.42
2022-11-30T19:48:47.974Z,30.80
2022-11-30T19:51:18.675Z,32.65
2022-11-30T19:53:45.466Z,27.23
2022-11-30T19:56:14.645Z,27.70
2022-11-30T19:58:43.816Z,26.08
2022-11-30T20:01:14.539Z,25.73
2022-11-30T20:03:44.440Z,18.52
2022-11-30T20:06:11.687Z,19.73
2022-11-30T20:08:38.628Z,18.83
2022-11-30T20:11:09.580Z,17.05
2022-11-30T20:13:36.447Z,19.77
2022-11-30T20:16:10.716Z,20.83
2022-11-30T20:18:41.282Z,19.33
2022-11-30T20:21:23.322Z,20.10
2022-11-30T20:23:51.030Z,20.42
2022-11-30T20:26:20.606Z,19.75
2022-11-30T20:28:48.112Z,19.85
2022-11-30T20:31:16.104Z,20.65
2022-11-30T20:33:43.157Z,22.27
2022-11-30T20:36:10.939Z,24.10
2022-11-30T20:38:37.941Z,20.77
2022-11-30T20:41:08.057Z,21.05
2022-11-30T20:43:34.452Z,23.83
2022-11-30T20:46:00.929Z,21.80
2022-11-30T20:48:28.024Z,22.83
2022-11-30T20:51:22.274Z,24.77
2022-11-30T20:53:41.784Z,26.17
2022-11-30T20:56:08.964Z,20.75
2022-11-30T20:58:35.614Z,23.50
2022-11-30T21:01:18.812Z,22.20
2022-11-30T21:03:45.834Z,26.70
2022-11-30T21:06:13.161Z,23.38
2022-11-30T21:08:40.475Z,21.55
2022-11-30T21:11:12.498Z,21.60
2022-11-30T21:13:40.466Z,25.08
2022-11-30T21:16:08.225Z,21.27
2022-11-30T21:18:35.969Z,24.13
2022-11-30T21:21:13.439Z,21.88
2022-11-30T21:23:40.074Z,22.50
2022-11-30T21:26:13.653Z,22.83
2022-11-30T21:28:40.051Z,25.70
2022-11-30T21:31:06.898Z,25.77
2022-11-30T21:33:33.598Z,23.55
2022-11-30T21:36:00.141Z,23.10
2022-11-30T21:38:26.535Z,20.00
2022-11-30T21:40:55.024Z,24.02
2022-11-30T21:43:21.666Z,27.08
2022-11-30T21:46:02.687Z,25.83
2022-11-30T21:48:30.828Z,25.45
2022-11-30T21:51:01.761Z,25.45
2022-11-30T21:53:29.872Z,25.92
2022-11-30T21:56:01.975Z,27.23
2022-11-30T21:58:30.623Z,24.60
2022-11-30T22:00:58.313Z,25.98
2022-11-30T22:03:25.075Z,25.15
2022-11-30T22:05:59.016Z,28.02
2022-11-30T22:08:25.634Z,28.40
2022-11-30T22:10:52.050Z,28.98
2022-11-30T22:13:18.442Z,31.73
2022-11-30T22:15:44.821Z,28.80
2022-11-30T22:18:11.239Z,30.65
2022-11-30T22:20:37.721Z,30.40
2022-11-30T22:23:04.112Z,29.48
2022-11-30T22:25:30.611Z,30.65
2022-11-30T22:27:57.025Z,30.83
2022-11-30T22:30:23.420Z,32.33
2022-11-30T22:32:49.825Z,30.67
2022-11-30T22:35:16.221Z,29.08
2022-11-30T22:37:42.676Z,32.88
2022-11-30T22:40:09.865Z,29.38
2022-11-30T22:42:36.283Z,29.48
2022-11-30T22:45:02.683Z,32.25
2022-11-30T22:47:29.059Z,30.83
2022-11-30T22:49:55.553Z,30.92
2022-11-30T22:52:36.388Z,32.42
2022-11-30T22:55:08.890Z,31.85
2022-11-30T22:57:35.349Z,31.80
2022-11-30T23:00:01.820Z,30.05
2022-11-30T23:02:28.317Z,27.95
2022-11-30T23:04:54.675Z,34.92
2022-11-30T23:07:21.046Z,31.60
2022-11-30T23:09:47.631Z,31.17
2022-11-30T23:12:24.843Z,32.58
2022-11-30T23:15:00.736Z,34.83
2022-11-30T23:17:27.103Z,32.97
2022-11-30T23:19:53.496Z,35.28
2022-11-30T23:22:19.905Z,35.67
2022-11-30T23:24:46.258Z,34.20
2022-11-30T23:27:12.816Z,36.55
2022-11-30T23:29:40.308Z,42.28
2022-11-30T23:32:08.023Z,36.92
2022-11-30T23:34:34.536Z,35.90
2022-11-30T23:37:00.913Z,35.63
2022-11-30T23:39:27.329Z,38.40
2022-11-30T23:41:53.738Z,34.85
2022-11-30T23:44:20.133Z,35.50
2022-11-30T23:46:46.979Z,40.80
2022-11-30T23:49:14.177Z,44.55
2022-11-30T23:51:41.145Z,35.63
2022-11-30T23:54:07.554Z,34.60
2022-11-30T23:56:33.933Z,38.53
2022-11-30T23:59:00.373Z,36.42
